sensor_id;sensor_type;location;lat;lon;timestamp;P1;durP1;ratioP1;P2;durP2;ratioP2
43457;SDS011;29046;54.184;18.680;2023-04-12T00:01:37;31.23;;;17.73;;
43457;SDS011;29046;54.184;18.680;2023-04-12T00:04:05;35.10;;;19.85;;
43457;SDS011;29046;54.184;18.680;2023-04-12T00:06:33;47.13;;;20.92;;
43457;SDS011;29046;54.184;18.680;2023-04-12T00:09:02;40.17;;;21.05;;
43457;SDS011;29046;54.184;18.680;2023-04-12T00:11:29;43.13;;;22.25;;
43457;SDS011;29046;54.184;18.680;2023-04-12T00:13:57;40.45;;;21.17;;
43457;SDS011;29046;54.184;18.680;2023-04-12T00:16:25;43.08;;;21.65;;
43457;SDS011;29046;54.184;18.680;2023-04-12T00:18:52;37.00;;;19.92;;
43457;SDS011;29046;54.184;18.680;2023-04-12T00:21:20;35.78;;;20.70;;
43457;SDS011;29046;54.184;18.680;2023-04-12T00:23:49;34.65;;;18.05;;
43457;SDS011;29046;54.184;18.680;2023-04-12T00:26:17;31.65;;;19.08;;
43457;SDS011;29046;54.184;18.680;2023-04-12T00:28:44;29.02;;;17.48;;
43457;SDS011;29046;54.184;18.680;2023-04-12T00:31:12;28.15;;;16.65;;
43457;SDS011;29046;54.184;18.680;2023-04-12T00:33:39;23.73;;;13.98;;
43457;SDS011;29046;54.184;18.680;2023-04-12T00:36:07;26.05;;;15.70;;
43457;SDS011;29046;54.184;18.680;2023-04-12T00:38:35;27.25;;;15.85;;
43457;SDS011;29046;54.184;18.680;2023-04-12T00:41:02;29.50;;;16.67;;
43457;SDS011;29046;54.184;18.680;2023-04-12T00:43:29;15.55;;;10.40;;
43457;SDS011;29046;54.184;18.680;2023-04-12T00:45:57;19.58;;;10.95;;
43457;SDS011;29046;54.184;18.680;2023-04-12T00:48:25;18.45;;;9.85;;
43457;SDS011;29046;54.184;18.680;2023-04-12T00:50:52;14.52;;;8.45;;
43457;SDS011;29046;54.184;18.680;2023-04-12T00:53:23;11.52;;;5.95;;
43457;SDS011;29046;54.184;18.680;2023-04-12T00:55:50;8.90;;;6.03;;
43457;SDS011;29046;54.184;18.680;2023-04-12T00:58:20;10.25;;;6.13;;
43457;SDS011;29046;54.184;18.680;2023-04-12T01:00:47;7.93;;;5.15;;
43457;SDS011;29046;54.184;18.680;2023-04-12T01:03:21;10.73;;;5.18;;
43457;SDS011;29046;54.184;18.680;2023-04-12T01:08:32;8.80;;;5.10;;
43457;SDS011;29046;54.184;18.680;2023-04-12T01:11:04;7.40;;;4.95;;
43457;SDS011;29046;54.184;18.680;2023-04-12T01:16:08;9.02;;;5.45;;
43457;SDS011;29046;54.184;18.680;2023-04-12T01:18:38;8.27;;;5.25;;
43457;SDS011;29046;54.184;18.680;2023-04-12T01:21:13;8.20;;;5.15;;
43457;SDS011;29046;54.184;18.680;2023-04-12T01:26:16;10.07;;;5.43;;
43457;SDS011;29046;54.184;18.680;2023-04-12T01:28:49;6.10;;;4.10;;
43457;SDS011;29046;54.184;18.680;2023-04-12T01:31:18;8.95;;;5.03;;
43457;SDS011;29046;54.184;18.680;2023-04-12T01:33:47;10.02;;;5.65;;
43457;SDS011;29046;54.184;18.680;2023-04-12T01:36:16;9.07;;;4.75;;
43457;SDS011;29046;54.184;18.680;2023-04-12T01:38:47;6.05;;;4.05;;
43457;SDS011;29046;54.184;18.680;2023-04-12T01:41:14;8.75;;;5.15;;
43457;SDS011;29046;54.184;18.680;2023-04-12T01:43:43;8.88;;;4.85;;
43457;SDS011;29046;54.184;18.680;2023-04-12T01:46:11;15.10;;;5.70;;
43457;SDS011;29046;54.184;18.680;2023-04-12T01:48:44;8.80;;;4.75;;
43457;SDS011;29046;54.184;18.680;2023-04-12T01:51:26;8.93;;;4.90;;
43457;SDS011;29046;54.184;18.680;2023-04-12T01:53:59;11.80;;;5.90;;
43457;SDS011;29046;54.184;18.680;2023-04-12T01:56:29;7.10;;;4.22;;
43457;SDS011;29046;54.184;18.680;2023-04-12T01:58:57;8.13;;;4.82;;
43457;SDS011;29046;54.184;18.680;2023-04-12T02:01:26;9.30;;;5.22;;
43457;SDS011;29046;54.184;18.680;2023-04-12T02:03:56;10.27;;;5.90;;
43457;SDS011;29046;54.184;18.680;2023-04-12T02:06:26;9.05;;;6.10;;
43457;SDS011;29046;54.184;18.680;2023-04-12T02:08:58;11.80;;;5.28;;
43457;SDS011;29046;54.184;18.680;2023-04-12T02:11:25;10.10;;;6.32;;
43457;SDS011;29046;54.184;18.680;2023-04-12T02:13:53;10.35;;;6.60;;
43457;SDS011;29046;54.184;18.680;2023-04-12T02:16:21;9.15;;;5.80;;
43457;SDS011;29046;54.184;18.680;2023-04-12T02:18:49;9.40;;;5.30;;
43457;SDS011;29046;54.184;18.680;2023-04-12T02:21:17;10.88;;;6.45;;
43457;SDS011;29046;54.184;18.680;2023-04-12T02:23:44;9.13;;;5.38;;
43457;SDS011;29046;54.184;18.680;2023-04-12T02:26:12;10.40;;;5.80;;
43457;SDS011;29046;54.184;18.680;2023-04-12T02:28:40;9.50;;;5.50;;
43457;SDS011;29046;54.184;18.680;2023-04-12T02:31:07;8.95;;;6.20;;
43457;SDS011;29046;54.184;18.680;2023-04-12T02:33:35;9.82;;;4.95;;
43457;SDS011;29046;54.184;18.680;2023-04-12T02:36:03;12.95;;;6.57;;
43457;SDS011;29046;54.184;18.680;2023-04-12T02:38:30;10.27;;;7.00;;
43457;SDS011;29046;54.184;18.680;2023-04-12T02:40:58;8.68;;;6.13;;
43457;SDS011;29046;54.184;18.680;2023-04-12T02:43:26;10.57;;;6.13;;
43457;SDS011;29046;54.184;18.680;2023-04-12T02:45:53;10.23;;;6.63;;
43457;SDS011;29046;54.184;18.680;2023-04-12T02:48:20;10.02;;;6.85;;
43457;SDS011;29046;54.184;18.680;2023-04-12T02:50:48;10.95;;;6.15;;
43457;SDS011;29046;54.184;18.680;2023-04-12T02:53:15;8.50;;;5.07;;
43457;SDS011;29046;54.184;18.680;2023-04-12T02:55:43;11.10;;;6.80;;
43457;SDS011;29046;54.184;18.680;2023-04-12T02:58:11;13.27;;;6.03;;
43457;SDS011;29046;54.184;18.680;2023-04-12T03:00:38;10.82;;;6.68;;
43457;SDS011;29046;54.184;18.680;2023-04-12T03:03:08;11.27;;;7.32;;
43457;SDS011;29046;54.184;18.680;2023-04-12T03:05:35;9.27;;;5.80;;
43457;SDS011;29046;54.184;18.680;2023-04-12T03:08:03;11.23;;;6.88;;
43457;SDS011;29046;54.184;18.680;2023-04-12T03:10:31;11.60;;;6.43;;
43457;SDS011;29046;54.184;18.680;2023-04-12T03:12:58;9.57;;;5.88;;
43457;SDS011;29046;54.184;18.680;2023-04-12T03:15:26;13.88;;;7.32;;
43457;SDS011;29046;54.184;18.680;2023-04-12T03:17:54;13.48;;;6.38;;
43457;SDS011;29046;54.184;18.680;2023-04-12T03:20:22;11.02;;;5.88;;
43457;SDS011;29046;54.184;18.680;2023-04-12T03:22:50;10.55;;;5.07;;
43457;SDS011;29046;54.184;18.680;2023-04-12T03:25:18;9.13;;;4.60;;
43457;SDS011;29046;54.184;18.680;2023-04-12T03:27:45;12.45;;;7.18;;
43457;SDS011;29046;54.184;18.680;2023-04-12T03:30:13;11.55;;;6.65;;
43457;SDS011;29046;54.184;18.680;2023-04-12T03:32:41;9.15;;;5.75;;
43457;SDS011;29046;54.184;18.680;2023-04-12T03:35:09;10.80;;;6.80;;
43457;SDS011;29046;54.184;18.680;2023-04-12T03:37:39;10.13;;;6.45;;
43457;SDS011;29046;54.184;18.680;2023-04-12T03:40:07;12.32;;;7.43;;
43457;SDS011;29046;54.184;18.680;2023-04-12T03:42:36;9.93;;;6.30;;
43457;SDS011;29046;54.184;18.680;2023-04-12T03:45:03;12.73;;;7.57;;
43457;SDS011;29046;54.184;18.680;2023-04-12T03:47:31;9.80;;;6.15;;
43457;SDS011;29046;54.184;18.680;2023-04-12T03:50:02;12.13;;;7.60;;
43457;SDS011;29046;54.184;18.680;2023-04-12T03:52:38;13.75;;;7.63;;
43457;SDS011;29046;54.184;18.680;2023-04-12T03:55:05;17.88;;;8.02;;
43457;SDS011;29046;54.184;18.680;2023-04-12T03:57:34;17.80;;;8.68;;
43457;SDS011;29046;54.184;18.680;2023-04-12T04:00:01;16.23;;;9.18;;
43457;SDS011;29046;54.184;18.680;2023-04-12T04:02:29;21.92;;;11.10;;
43457;SDS011;29046;54.184;18.680;2023-04-12T04:04:57;21.23;;;10.85;;
43457;SDS011;29046;54.184;18.680;2023-04-12T04:07:25;23.48;;;12.43;;
43457;SDS011;29046;54.184;18.680;2023-04-12T04:09:53;17.75;;;13.43;;
43457;SDS011;29046;54.184;18.680;2023-04-12T04:12:21;9.82;;;5.88;;
43457;SDS011;29046;54.184;18.680;2023-04-12T04:14:49;18.52;;;11.55;;
43457;SDS011;29046;54.184;18.680;2023-04-12T04:17:16;14.45;;;9.68;;
43457;SDS011;29046;54.184;18.680;2023-04-12T04:19:44;13.35;;;8.35;;
43457;SDS011;29046;54.184;18.680;2023-04-12T04:22:11;13.52;;;8.75;;
43457;SDS011;29046;54.184;18.680;2023-04-12T04:24:39;16.77;;;8.82;;
43457;SDS011;29046;54.184;18.680;2023-04-12T04:27:06;23.70;;;13.05;;
43457;SDS011;29046;54.184;18.680;2023-04-12T04:29:34;51.53;;;23.30;;
43457;SDS011;29046;54.184;18.680;2023-04-12T04:32:11;33.33;;;18.85;;
43457;SDS011;29046;54.184;18.680;2023-04-12T04:34:38;28.30;;;13.55;;
43457;SDS011;29046;54.184;18.680;2023-04-12T04:37:07;11.10;;;7.25;;
43457;SDS011;29046;54.184;18.680;2023-04-12T04:39:34;17.05;;;8.65;;
43457;SDS011;29046;54.184;18.680;2023-04-12T04:42:03;13.60;;;8.77;;
43457;SDS011;29046;54.184;18.680;2023-04-12T04:44:31;16.27;;;9.00;;
43457;SDS011;29046;54.184;18.680;2023-04-12T04:47:01;15.13;;;8.25;;
43457;SDS011;29046;54.184;18.680;2023-04-12T04:49:30;17.48;;;8.52;;
43457;SDS011;29046;54.184;18.680;2023-04-12T04:51:59;14.68;;;9.25;;
43457;SDS011;29046;54.184;18.680;2023-04-12T04:54:27;21.08;;;9.90;;
43457;SDS011;29046;54.184;18.680;2023-04-12T04:56:55;16.08;;;9.02;;
43457;SDS011;29046;54.184;18.680;2023-04-12T04:59:22;14.05;;;9.15;;
43457;SDS011;29046;54.184;18.680;2023-04-12T05:01:50;17.20;;;8.35;;
43457;SDS011;29046;54.184;18.680;2023-04-12T05:04:17;15.80;;;8.27;;
43457;SDS011;29046;54.184;18.680;2023-04-12T05:06:45;16.45;;;8.43;;
43457;SDS011;29046;54.184;18.680;2023-04-12T05:09:12;12.77;;;8.45;;
43457;SDS011;29046;54.184;18.680;2023-04-12T05:11:40;11.80;;;7.43;;
43457;SDS011;29046;54.184;18.680;2023-04-12T05:14:07;12.30;;;7.88;;
43457;SDS011;29046;54.184;18.680;2023-04-12T05:16:38;13.85;;;8.13;;
43457;SDS011;29046;54.184;18.680;2023-04-12T05:19:05;13.82;;;7.97;;
43457;SDS011;29046;54.184;18.680;2023-04-12T05:21:33;11.15;;;7.53;;
43457;SDS011;29046;54.184;18.680;2023-04-12T05:24:00;11.40;;;7.53;;
43457;SDS011;29046;54.184;18.680;2023-04-12T05:26:28;12.43;;;7.75;;
43457;SDS011;29046;54.184;18.680;2023-04-12T05:28:55;12.93;;;6.68;;
43457;SDS011;29046;54.184;18.680;2023-04-12T05:31:23;16.48;;;7.63;;
43457;SDS011;29046;54.184;18.680;2023-04-12T05:33:51;8.90;;;6.63;;
43457;SDS011;29046;54.184;18.680;2023-04-12T05:36:20;10.90;;;6.65;;
43457;SDS011;29046;54.184;18.680;2023-04-12T05:38:47;11.82;;;5.93;;
43457;SDS011;29046;54.184;18.680;2023-04-12T05:41:14;9.63;;;5.50;;
43457;SDS011;29046;54.184;18.680;2023-04-12T05:43:43;9.13;;;5.53;;
43457;SDS011;29046;54.184;18.680;2023-04-12T05:46:10;10.15;;;6.25;;
43457;SDS011;29046;54.184;18.680;2023-04-12T05:48:38;11.63;;;6.50;;
43457;SDS011;29046;54.184;18.680;2023-04-12T05:51:06;12.32;;;6.80;;
43457;SDS011;29046;54.184;18.680;2023-04-12T05:53:33;12.68;;;7.32;;
43457;SDS011;29046;54.184;18.680;2023-04-12T05:56:00;14.13;;;6.35;;
43457;SDS011;29046;54.184;18.680;2023-04-12T05:58:28;11.85;;;6.55;;
43457;SDS011;29046;54.184;18.680;2023-04-12T06:00:56;10.25;;;6.22;;
43457;SDS011;29046;54.184;18.680;2023-04-12T06:03:23;10.55;;;5.60;;
43457;SDS011;29046;54.184;18.680;2023-04-12T06:05:52;16.77;;;7.88;;
43457;SDS011;29046;54.184;18.680;2023-04-12T06:08:19;13.65;;;7.28;;
43457;SDS011;29046;54.184;18.680;2023-04-12T06:10:47;15.02;;;6.95;;
43457;SDS011;29046;54.184;18.680;2023-04-12T06:13:15;12.70;;;7.57;;
43457;SDS011;29046;54.184;18.680;2023-04-12T06:15:42;15.55;;;8.60;;
43457;SDS011;29046;54.184;18.680;2023-04-12T06:18:10;15.95;;;8.48;;
43457;SDS011;29046;54.184;18.680;2023-04-12T06:20:38;13.50;;;8.50;;
43457;SDS011;29046;54.184;18.680;2023-04-12T06:23:06;12.70;;;7.85;;
43457;SDS011;29046;54.184;18.680;2023-04-12T06:25:33;13.48;;;6.57;;
43457;SDS011;29046;54.184;18.680;2023-04-12T06:28:01;11.25;;;6.90;;
43457;SDS011;29046;54.184;18.680;2023-04-12T06:30:28;8.43;;;5.60;;
43457;SDS011;29046;54.184;18.680;2023-04-12T06:32:56;10.63;;;5.78;;
43457;SDS011;29046;54.184;18.680;2023-04-12T06:35:24;7.57;;;5.75;;
43457;SDS011;29046;54.184;18.680;2023-04-12T06:37:51;8.68;;;5.78;;
43457;SDS011;29046;54.184;18.680;2023-04-12T06:40:19;9.35;;;6.05;;
43457;SDS011;29046;54.184;18.680;2023-04-12T06:42:46;12.13;;;7.07;;
43457;SDS011;29046;54.184;18.680;2023-04-12T06:45:14;15.82;;;8.70;;
43457;SDS011;29046;54.184;18.680;2023-04-12T06:47:41;11.02;;;7.80;;
43457;SDS011;29046;54.184;18.680;2023-04-12T06:50:09;13.30;;;8.30;;
43457;SDS011;29046;54.184;18.680;2023-04-12T06:52:36;17.38;;;9.30;;
43457;SDS011;29046;54.184;18.680;2023-04-12T06:55:05;15.18;;;9.65;;
43457;SDS011;29046;54.184;18.680;2023-04-12T06:57:32;15.27;;;9.50;;
43457;SDS011;29046;54.184;18.680;2023-04-12T07:00:01;18.85;;;10.77;;
43457;SDS011;29046;54.184;18.680;2023-04-12T07:02:29;16.33;;;9.60;;
43457;SDS011;29046;54.184;18.680;2023-04-12T07:04:57;15.60;;;9.80;;
43457;SDS011;29046;54.184;18.680;2023-04-12T07:07:24;15.85;;;8.90;;
43457;SDS011;29046;54.184;18.680;2023-04-12T07:09:51;17.50;;;10.38;;
43457;SDS011;29046;54.184;18.680;2023-04-12T07:12:19;15.23;;;9.60;;
43457;SDS011;29046;54.184;18.680;2023-04-12T07:14:47;15.40;;;8.85;;
43457;SDS011;29046;54.184;18.680;2023-04-12T07:17:14;14.35;;;8.77;;
43457;SDS011;29046;54.184;18.680;2023-04-12T07:19:42;18.48;;;8.75;;
43457;SDS011;29046;54.184;18.680;2023-04-12T07:22:09;13.40;;;7.82;;
43457;SDS011;29046;54.184;18.680;2023-04-12T07:24:39;17.90;;;9.18;;
43457;SDS011;29046;54.184;18.680;2023-04-12T07:27:07;11.95;;;8.40;;
43457;SDS011;29046;54.184;18.680;2023-04-12T07:29:34;14.85;;;8.98;;
43457;SDS011;29046;54.184;18.680;2023-04-12T07:32:02;12.80;;;8.30;;
43457;SDS011;29046;54.184;18.680;2023-04-12T07:34:30;12.18;;;6.88;;
43457;SDS011;29046;54.184;18.680;2023-04-12T07:36:57;11.25;;;7.35;;
43457;SDS011;29046;54.184;18.680;2023-04-12T07:39:26;12.23;;;7.63;;
43457;SDS011;29046;54.184;18.680;2023-04-12T07:41:57;10.45;;;6.15;;
43457;SDS011;29046;54.184;18.680;2023-04-12T07:44:25;10.30;;;6.35;;
43457;SDS011;29046;54.184;18.680;2023-04-12T07:46:52;19.70;;;8.18;;
43457;SDS011;29046;54.184;18.680;2023-04-12T07:49:20;11.73;;;6.20;;
43457;SDS011;29046;54.184;18.680;2023-04-12T07:51:47;7.88;;;5.30;;
43457;SDS011;29046;54.184;18.680;2023-04-12T07:54:15;12.40;;;5.85;;
43457;SDS011;29046;54.184;18.680;2023-04-12T07:56:55;8.20;;;5.05;;
43457;SDS011;29046;54.184;18.680;2023-04-12T07:59:24;12.57;;;6.28;;
43457;SDS011;29046;54.184;18.680;2023-04-12T08:01:51;11.40;;;5.90;;
43457;SDS011;29046;54.184;18.680;2023-04-12T08:04:19;9.18;;;5.80;;
43457;SDS011;29046;54.184;18.680;2023-04-12T08:06:46;9.35;;;5.93;;
43457;SDS011;29046;54.184;18.680;2023-04-12T08:09:14;7.70;;;5.55;;
43457;SDS011;29046;54.184;18.680;2023-04-12T08:11:41;10.80;;;5.63;;
43457;SDS011;29046;54.184;18.680;2023-04-12T08:14:09;7.97;;;5.72;;
43457;SDS011;29046;54.184;18.680;2023-04-12T08:16:37;9.68;;;5.80;;
43457;SDS011;29046;54.184;18.680;2023-04-12T08:19:04;12.18;;;7.15;;
43457;SDS011;29046;54.184;18.680;2023-04-12T08:21:32;11.98;;;6.60;;
43457;SDS011;29046;54.184;18.680;2023-04-12T08:24:00;8.75;;;5.85;;
43457;SDS011;29046;54.184;18.680;2023-04-12T08:26:27;9.10;;;5.35;;
43457;SDS011;29046;54.184;18.680;2023-04-12T08:28:55;9.85;;;6.57;;
43457;SDS011;29046;54.184;18.680;2023-04-12T08:31:23;14.10;;;7.97;;
43457;SDS011;29046;54.184;18.680;2023-04-12T08:33:51;11.05;;;7.00;;
43457;SDS011;29046;54.184;18.680;2023-04-12T08:36:18;11.23;;;6.55;;
43457;SDS011;29046;54.184;18.680;2023-04-12T08:38:46;10.00;;;6.65;;
43457;SDS011;29046;54.184;18.680;2023-04-12T08:41:17;9.30;;;5.95;;
43457;SDS011;29046;54.184;18.680;2023-04-12T08:43:46;9.00;;;6.30;;
43457;SDS011;29046;54.184;18.680;2023-04-12T08:46:14;10.48;;;7.15;;
43457;SDS011;29046;54.184;18.680;2023-04-12T08:48:43;7.40;;;4.57;;
43457;SDS011;29046;54.184;18.680;2023-04-12T08:51:15;10.70;;;6.68;;
43457;SDS011;29046;54.184;18.680;2023-04-12T08:53:46;10.85;;;6.80;;
43457;SDS011;29046;54.184;18.680;2023-04-12T08:56:14;11.32;;;6.88;;
43457;SDS011;29046;54.184;18.680;2023-04-12T08:58:45;9.88;;;6.00;;
43457;SDS011;29046;54.184;18.680;2023-04-12T09:01:16;18.85;;;8.35;;
43457;SDS011;29046;54.184;18.680;2023-04-12T09:03:45;11.77;;;7.45;;
43457;SDS011;29046;54.184;18.680;2023-04-12T09:06:13;11.55;;;6.95;;
43457;SDS011;29046;54.184;18.680;2023-04-12T09:08:54;11.77;;;6.68;;
43457;SDS011;29046;54.184;18.680;2023-04-12T09:11:22;11.85;;;6.97;;
43457;SDS011;29046;54.184;18.680;2023-04-12T09:13:52;9.68;;;6.55;;
43457;SDS011;29046;54.184;18.680;2023-04-12T09:16:32;10.75;;;7.07;;
43457;SDS011;29046;54.184;18.680;2023-04-12T09:19:00;10.88;;;6.93;;
43457;SDS011;29046;54.184;18.680;2023-04-12T09:21:30;10.18;;;6.65;;
43457;SDS011;29046;54.184;18.680;2023-04-12T09:24:01;11.32;;;7.20;;
43457;SDS011;29046;54.184;18.680;2023-04-12T09:26:28;12.38;;;8.20;;
43457;SDS011;29046;54.184;18.680;2023-04-12T09:28:57;12.63;;;7.70;;
43457;SDS011;29046;54.184;18.680;2023-04-12T09:31:24;14.25;;;8.23;;
43457;SDS011;29046;54.184;18.680;2023-04-12T09:33:52;18.15;;;10.40;;
43457;SDS011;29046;54.184;18.680;2023-04-12T09:36:38;12.13;;;7.95;;
43457;SDS011;29046;54.184;18.680;2023-04-12T09:39:06;13.38;;;7.80;;
43457;SDS011;29046;54.184;18.680;2023-04-12T09:41:34;12.98;;;8.95;;
43457;SDS011;29046;54.184;18.680;2023-04-12T09:44:02;14.02;;;9.25;;
43457;SDS011;29046;54.184;18.680;2023-04-12T09:46:30;15.40;;;7.13;;
43457;SDS011;29046;54.184;18.680;2023-04-12T09:48:59;14.40;;;9.27;;
43457;SDS011;29046;54.184;18.680;2023-04-12T09:51:29;13.40;;;8.20;;
43457;SDS011;29046;54.184;18.680;2023-04-12T09:54:01;12.32;;;7.95;;
43457;SDS011;29046;54.184;18.680;2023-04-12T09:56:31;16.45;;;9.07;;
43457;SDS011;29046;54.184;18.680;2023-04-12T09:59:01;12.90;;;7.75;;
43457;SDS011;29046;54.184;18.680;2023-04-12T10:01:34;12.30;;;8.75;;
43457;SDS011;29046;54.184;18.680;2023-04-12T10:04:03;10.85;;;8.02;;
43457;SDS011;29046;54.184;18.680;2023-04-12T10:06:32;14.30;;;8.52;;
43457;SDS011;29046;54.184;18.680;2023-04-12T10:09:04;19.33;;;10.27;;
43457;SDS011;29046;54.184;18.680;2023-04-12T10:11:32;18.48;;;8.50;;
43457;SDS011;29046;54.184;18.680;2023-04-12T10:14:02;11.23;;;7.57;;
43457;SDS011;29046;54.184;18.680;2023-04-12T10:16:32;14.93;;;8.90;;
43457;SDS011;29046;54.184;18.680;2023-04-12T10:19:02;13.15;;;8.82;;
43457;SDS011;29046;54.184;18.680;2023-04-12T10:21:29;12.98;;;9.05;;
43457;SDS011;29046;54.184;18.680;2023-04-12T10:23:58;18.65;;;9.63;;
43457;SDS011;29046;54.184;18.680;2023-04-12T10:26:25;13.07;;;8.70;;
43457;SDS011;29046;54.184;18.680;2023-04-12T10:31:39;11.52;;;8.27;;
43457;SDS011;29046;54.184;18.680;2023-04-12T10:34:08;14.07;;;8.80;;
43457;SDS011;29046;54.184;18.680;2023-04-12T10:39:33;11.80;;;8.45;;
43457;SDS011;29046;54.184;18.680;2023-04-12T10:42:35;14.95;;;9.45;;
43457;SDS011;29046;54.184;18.680;2023-04-12T10:50:23;13.10;;;8.82;;
43457;SDS011;29046;54.184;18.680;2023-04-12T10:55:47;14.57;;;8.80;;
43457;SDS011;29046;54.184;18.680;2023-04-12T11:01:10;14.57;;;10.27;;
43457;SDS011;29046;54.184;18.680;2023-04-12T11:03:39;12.68;;;9.10;;
43457;SDS011;29046;54.184;18.680;2023-04-12T11:09:21;12.50;;;9.10;;
43457;SDS011;29046;54.184;18.680;2023-04-12T11:11:50;13.65;;;9.07;;
43457;SDS011;29046;54.184;18.680;2023-04-12T11:14:17;16.58;;;9.60;;
43457;SDS011;29046;54.184;18.680;2023-04-12T11:19:38;23.60;;;9.77;;
43457;SDS011;29046;54.184;18.680;2023-04-12T11:22:07;15.40;;;9.88;;
43457;SDS011;29046;54.184;18.680;2023-04-12T11:24:42;13.88;;;9.80;;
43457;SDS011;29046;54.184;18.680;2023-04-12T11:27:10;13.65;;;9.35;;
43457;SDS011;29046;54.184;18.680;2023-04-12T11:29:38;16.15;;;9.70;;
43457;SDS011;29046;54.184;18.680;2023-04-12T11:32:08;14.15;;;10.23;;
43457;SDS011;29046;54.184;18.680;2023-04-12T11:34:38;16.08;;;10.02;;
43457;SDS011;29046;54.184;18.680;2023-04-12T11:37:06;16.90;;;10.60;;
43457;SDS011;29046;54.184;18.680;2023-04-12T11:39:34;12.68;;;9.45;;
43457;SDS011;29046;54.184;18.680;2023-04-12T11:42:02;15.30;;;10.07;;
43457;SDS011;29046;54.184;18.680;2023-04-12T11:44:31;14.10;;;9.93;;
43457;SDS011;29046;54.184;18.680;2023-04-12T11:47:18;16.60;;;10.85;;
43457;SDS011;29046;54.184;18.680;2023-04-12T11:49:47;16.15;;;10.48;;
43457;SDS011;29046;54.184;18.680;2023-04-12T11:52:15;13.77;;;9.27;;
43457;SDS011;29046;54.184;18.680;2023-04-12T11:54:46;14.95;;;9.90;;
43457;SDS011;29046;54.184;18.680;2023-04-12T11:57:17;17.13;;;10.55;;
43457;SDS011;29046;54.184;18.680;2023-04-12T11:59:45;16.40;;;10.30;;
43457;SDS011;29046;54.184;18.680;2023-04-12T12:02:14;16.75;;;11.48;;
43457;SDS011;29046;54.184;18.680;2023-04-12T12:04:49;24.92;;;11.35;;
43457;SDS011;29046;54.184;18.680;2023-04-12T12:07:18;16.30;;;11.40;;
43457;SDS011;29046;54.184;18.680;2023-04-12T12:09:47;15.05;;;11.27;;
43457;SDS011;29046;54.184;18.680;2023-04-12T12:12:15;20.27;;;11.10;;
43457;SDS011;29046;54.184;18.680;2023-04-12T12:14:43;17.10;;;11.65;;
43457;SDS011;29046;54.184;18.680;2023-04-12T12:17:14;13.65;;;10.60;;
43457;SDS011;29046;54.184;18.680;2023-04-12T12:19:43;15.10;;;11.00;;
43457;SDS011;29046;54.184;18.680;2023-04-12T12:22:13;13.35;;;9.90;;
43457;SDS011;29046;54.184;18.680;2023-04-12T12:24:50;14.75;;;11.10;;
43457;SDS011;29046;54.184;18.680;2023-04-12T12:27:22;13.48;;;10.00;;
43457;SDS011;29046;54.184;18.680;2023-04-12T12:29:58;20.25;;;10.95;;
43457;SDS011;29046;54.184;18.680;2023-04-12T12:32:31;16.35;;;11.95;;
43457;SDS011;29046;54.184;18.680;2023-04-12T12:35:00;18.35;;;11.68;;
43457;SDS011;29046;54.184;18.680;2023-04-12T12:37:28;16.02;;;11.75;;
43457;SDS011;29046;54.184;18.680;2023-04-12T12:42:27;19.48;;;12.27;;
43457;SDS011;29046;54.184;18.680;2023-04-12T12:44:54;16.45;;;11.18;;
43457;SDS011;29046;54.184;18.680;2023-04-12T12:47:22;16.20;;;11.60;;
43457;SDS011;29046;54.184;18.680;2023-04-12T12:49:49;15.60;;;11.40;;
43457;SDS011;29046;54.184;18.680;2023-04-12T12:52:17;19.23;;;11.60;;
43457;SDS011;29046;54.184;18.680;2023-04-12T12:54:44;14.90;;;11.05;;
43457;SDS011;29046;54.184;18.680;2023-04-12T12:57:12;16.63;;;12.48;;
43457;SDS011;29046;54.184;18.680;2023-04-12T12:59:40;17.52;;;11.93;;
43457;SDS011;29046;54.184;18.680;2023-04-12T13:02:07;20.83;;;11.95;;
43457;SDS011;29046;54.184;18.680;2023-04-12T13:04:35;16.30;;;11.73;;
43457;SDS011;29046;54.184;18.680;2023-04-12T13:07:03;18.10;;;12.15;;
43457;SDS011;29046;54.184;18.680;2023-04-12T13:09:31;16.10;;;12.07;;
43457;SDS011;29046;54.184;18.680;2023-04-12T13:11:58;19.15;;;11.88;;
43457;SDS011;29046;54.184;18.680;2023-04-12T13:14:27;21.20;;;12.18;;
43457;SDS011;29046;54.184;18.680;2023-04-12T13:16:54;18.42;;;13.38;;
43457;SDS011;29046;54.184;18.680;2023-04-12T13:19:22;17.70;;;12.05;;
43457;SDS011;29046;54.184;18.680;2023-04-12T13:21:50;18.52;;;12.98;;
43457;SDS011;29046;54.184;18.680;2023-04-12T13:24:18;18.55;;;13.93;;
43457;SDS011;29046;54.184;18.680;2023-04-12T13:26:47;21.80;;;13.27;;
43457;SDS011;29046;54.184;18.680;2023-04-12T13:29:14;21.05;;;14.43;;
43457;SDS011;29046;54.184;18.680;2023-04-12T13:31:42;18.05;;;12.85;;
43457;SDS011;29046;54.184;18.680;2023-04-12T13:34:09;24.85;;;14.40;;
43457;SDS011;29046;54.184;18.680;2023-04-12T13:36:37;18.48;;;13.35;;
43457;SDS011;29046;54.184;18.680;2023-04-12T13:39:05;19.48;;;13.10;;
43457;SDS011;29046;54.184;18.680;2023-04-12T13:41:32;19.30;;;13.77;;
43457;SDS011;29046;54.184;18.680;2023-04-12T13:44:00;20.55;;;11.82;;
43457;SDS011;29046;54.184;18.680;2023-04-12T13:46:28;18.05;;;11.65;;
43457;SDS011;29046;54.184;18.680;2023-04-12T13:48:55;15.20;;;11.70;;
43457;SDS011;29046;54.184;18.680;2023-04-12T13:51:23;15.77;;;11.77;;
43457;SDS011;29046;54.184;18.680;2023-04-12T13:53:52;17.73;;;12.45;;
43457;SDS011;29046;54.184;18.680;2023-04-12T13:56:19;17.40;;;12.90;;
43457;SDS011;29046;54.184;18.680;2023-04-12T13:58:47;13.85;;;11.48;;
43457;SDS011;29046;54.184;18.680;2023-04-12T14:01:14;17.27;;;11.95;;
43457;SDS011;29046;54.184;18.680;2023-04-12T14:03:42;15.13;;;10.65;;
43457;SDS011;29046;54.184;18.680;2023-04-12T14:06:10;14.30;;;11.50;;
43457;SDS011;29046;54.184;18.680;2023-04-12T14:08:38;16.38;;;11.43;;
43457;SDS011;29046;54.184;18.680;2023-04-12T14:11:05;14.10;;;10.38;;
43457;SDS011;29046;54.184;18.680;2023-04-12T14:13:33;12.57;;;10.40;;
43457;SDS011;29046;54.184;18.680;2023-04-12T14:16:00;11.73;;;9.55;;
43457;SDS011;29046;54.184;18.680;2023-04-12T14:18:28;13.27;;;9.80;;
43457;SDS011;29046;54.184;18.680;2023-04-12T14:20:56;12.70;;;9.60;;
43457;SDS011;29046;54.184;18.680;2023-04-12T14:23:24;13.02;;;9.93;;
43457;SDS011;29046;54.184;18.680;2023-04-12T14:25:53;14.63;;;10.25;;
43457;SDS011;29046;54.184;18.680;2023-04-12T14:28:21;12.65;;;9.95;;
43457;SDS011;29046;54.184;18.680;2023-04-12T14:30:49;12.38;;;9.38;;
43457;SDS011;29046;54.184;18.680;2023-04-12T14:33:17;14.07;;;9.25;;
43457;SDS011;29046;54.184;18.680;2023-04-12T14:35:45;10.73;;;8.60;;
43457;SDS011;29046;54.184;18.680;2023-04-12T14:38:13;12.93;;;8.30;;
43457;SDS011;29046;54.184;18.680;2023-04-12T14:40:41;12.85;;;9.75;;
43457;SDS011;29046;54.184;18.680;2023-04-12T14:43:09;11.48;;;8.75;;
43457;SDS011;29046;54.184;18.680;2023-04-12T14:45:36;12.60;;;8.85;;
43457;SDS011;29046;54.184;18.680;2023-04-12T14:48:04;11.10;;;8.40;;
43457;SDS011;29046;54.184;18.680;2023-04-12T14:50:32;12.80;;;8.50;;
43457;SDS011;29046;54.184;18.680;2023-04-12T14:53:00;11.30;;;8.43;;
43457;SDS011;29046;54.184;18.680;2023-04-12T14:55:27;12.98;;;9.68;;
43457;SDS011;29046;54.184;18.680;2023-04-12T14:57:55;12.02;;;8.07;;
43457;SDS011;29046;54.184;18.680;2023-04-12T15:00:22;13.27;;;9.85;;
43457;SDS011;29046;54.184;18.680;2023-04-12T15:02:50;14.35;;;10.32;;